Watch Hill, Rhode Island
Current Conditions -  °F | °C
As of 2:53 PM on Tuesday 21 Oct 2014 (Local Time) from KWST Reporting Station
Clear Clear  
Wind Chill: 65°   Ceiling: Unl
Heat Index: 65°   Visibility: 10mi
Dew Point: 56°   Wind: 6mph
Humidity: 73%   Direction: 140°SE
Pressure: 29.88"   Gusts: NA
Location:  41.3616°N, 71.7933°W
Report Text: KWST 211853Z AUTO 14005KT 10SM CLR 18/13 A2988 RMK AO2 SLP117 T01830133
Loading
Personal Weather Stations






























Interactive Weather Map
Tropical Storm Tracking
New forecast layout! Learn more

10-Day Weather Forecast

Advertisements
Track Severe Weather on mobile